createdAt,value
2022-11-13T00:00:11.937Z,63.75
2022-11-13T00:03:53.143Z,59.50
2022-11-13T00:07:14.890Z,58.00
2022-11-13T00:10:36.582Z,58.50
2022-11-13T00:13:58.390Z,59.75
2022-11-13T00:17:19.899Z,60.50
2022-11-13T00:20:41.554Z,66.75
2022-11-13T00:24:02.657Z,62.25
2022-11-13T00:27:24.099Z,62.00
2022-11-13T00:30:45.599Z,61.75
2022-11-13T00:34:33.110Z,63.00
2022-11-13T00:37:49.959Z,53.25
2022-11-13T00:41:11.923Z,61.75
2022-11-13T00:44:33.025Z,60.00
2022-11-13T00:47:54.732Z,69.00
2022-11-13T00:51:16.038Z,63.25
2022-11-13T00:54:37.833Z,66.00
2022-11-13T00:57:59.140Z,64.75
2022-11-13T01:01:21.311Z,63.00
2022-11-13T01:04:43.042Z,59.50
2022-11-13T01:08:05.503Z,59.50
2022-11-13T01:11:30.243Z,61.25
2022-11-13T01:14:51.833Z,64.25
2022-11-13T01:18:13.410Z,60.75
2022-11-13T01:21:34.598Z,65.75
2022-11-13T01:24:55.939Z,62.50
2022-11-13T01:28:17.567Z,63.25
2022-11-13T01:31:38.715Z,58.00
2022-11-13T01:35:00.701Z,60.75
2022-11-13T01:38:21.663Z,61.00
2022-11-13T01:41:43.774Z,65.25
2022-11-13T01:45:25.113Z,64.25
2022-11-13T01:49:09.688Z,70.00
2022-11-13T01:52:37.579Z,64.25
2022-11-13T01:55:59.565Z,60.75
2022-11-13T01:59:27.325Z,60.75
2022-11-13T02:02:49.314Z,62.25
2022-11-13T02:06:10.650Z,63.25
2022-11-13T02:09:38.003Z,64.25
2022-11-13T02:12:59.354Z,60.00
2022-11-13T02:16:22.559Z,63.50
2022-11-13T02:19:50.815Z,63.50
2022-11-13T02:23:18.183Z,66.75
2022-11-13T02:26:40.152Z,64.25
2022-11-13T02:30:16.361Z,60.00
2022-11-13T02:33:37.369Z,60.25
2022-11-13T02:36:59.208Z,64.25
2022-11-13T02:40:20.695Z,65.75
2022-11-13T02:43:42.689Z,64.75
2022-11-13T02:47:04.150Z,64.00
2022-11-13T02:50:25.452Z,64.00
2022-11-13T02:53:46.380Z,63.25
2022-11-13T02:57:07.641Z,59.50
2022-11-13T03:00:28.653Z,62.50
2022-11-13T03:03:58.475Z,65.50
2022-11-13T03:07:19.731Z,64.25
2022-11-13T03:10:41.352Z,64.50
2022-11-13T03:14:02.654Z,61.25
2022-11-13T03:17:24.394Z,65.75
2022-11-13T03:20:45.600Z,60.00
2022-11-13T03:24:07.480Z,54.50
2022-11-13T03:27:30.999Z,67.00
2022-11-13T03:30:52.404Z,59.50
2022-11-13T03:34:13.733Z,58.00
2022-11-13T03:37:35.500Z,58.75
2022-11-13T03:40:57.057Z,61.75
2022-11-13T03:44:18.308Z,58.75
2022-11-13T03:47:39.613Z,62.75
2022-11-13T03:51:01.516Z,60.00
2022-11-13T03:54:23.012Z,63.50
2022-11-13T03:57:44.203Z,57.75
2022-11-13T04:01:05.398Z,59.50
2022-11-13T04:04:26.968Z,55.00
2022-11-13T04:07:48.394Z,50.00
2022-11-13T04:11:11.595Z,62.50
2022-11-13T04:14:33.069Z,58.75
2022-11-13T04:17:54.542Z,60.00
2022-11-13T04:21:15.732Z,57.00
2022-11-13T04:24:37.017Z,58.00
2022-11-13T04:27:58.223Z,58.00
2022-11-13T04:31:19.897Z,57.75
2022-11-13T04:34:41.182Z,55.50
2022-11-13T04:38:03.306Z,57.75
2022-11-13T04:41:43.589Z,57.25
2022-11-13T04:45:05.827Z,53.75
2022-11-13T04:48:27.599Z,49.50
2022-11-13T04:51:49.433Z,59.00
2022-11-13T04:55:11.591Z,58.50
2022-11-13T04:58:33.458Z,56.75
2022-11-13T05:01:55.943Z,54.75
2022-11-13T05:05:17.772Z,61.50
2022-11-13T05:08:39.881Z,53.50
2022-11-13T05:12:01.497Z,59.25
2022-11-13T05:15:23.079Z,49.75
2022-11-13T05:18:44.338Z,66.00
2022-11-13T05:22:06.444Z,55.75
2022-11-13T05:25:28.288Z,48.75
2022-11-13T05:28:49.418Z,56.25
2022-11-13T05:32:11.054Z,51.50
2022-11-13T05:35:32.767Z,57.00
2022-11-13T05:38:54.092Z,47.50
2022-11-13T05:42:15.182Z,49.50
2022-11-13T05:45:36.536Z,50.25
2022-11-13T05:49:00.587Z,56.00
2022-11-13T05:52:22.191Z,48.00
2022-11-13T05:55:43.617Z,46.25
2022-11-13T05:59:05.693Z,47.75
2022-11-13T06:02:29.845Z,57.00
2022-11-13T06:05:51.790Z,48.50
2022-11-13T06:09:16.016Z,57.00
2022-11-13T06:12:37.483Z,45.75
2022-11-13T06:16:04.489Z,54.25
2022-11-13T06:19:26.894Z,51.75
2022-11-13T06:22:47.953Z,56.75
2022-11-13T06:26:21.471Z,54.25
2022-11-13T06:29:42.680Z,54.50
2022-11-13T06:33:04.459Z,56.50
2022-11-13T06:36:31.620Z,48.00
2022-11-13T06:39:53.188Z,55.00
2022-11-13T06:43:14.648Z,54.25
2022-11-13T06:46:36.584Z,46.50
2022-11-13T06:49:58.005Z,51.75
2022-11-13T06:53:19.686Z,44.50
2022-11-13T06:56:45.646Z,42.75
2022-11-13T07:00:08.270Z,56.00
2022-11-13T07:03:29.252Z,51.00
2022-11-13T07:06:50.741Z,46.25
2022-11-13T07:10:11.863Z,41.25
2022-11-13T07:13:34.063Z,51.00
2022-11-13T07:17:09.215Z,53.00
2022-11-13T07:20:32.608Z,43.00
2022-11-13T07:23:54.027Z,45.25
2022-11-13T07:27:15.322Z,44.50
2022-11-13T07:30:36.419Z,44.75
2022-11-13T07:33:57.900Z,45.25
2022-11-13T07:37:19.393Z,40.25
2022-11-13T07:40:41.014Z,42.50
2022-11-13T07:44:05.445Z,47.00
2022-11-13T07:47:29.430Z,49.50
2022-11-13T07:50:51.543Z,43.25
2022-11-13T07:54:12.937Z,40.75
2022-11-13T07:57:34.532Z,40.50
2022-11-13T08:00:59.076Z,40.00
2022-11-13T08:04:20.179Z,36.00
2022-11-13T08:07:41.737Z,37.75
2022-11-13T08:11:09.110Z,35.50
2022-11-13T08:14:30.597Z,36.75
2022-11-13T08:17:59.589Z,45.50
2022-11-13T08:21:21.558Z,43.25
2022-11-13T08:24:42.751Z,43.00
2022-11-13T08:28:08.726Z,46.75
2022-11-13T08:31:33.260Z,36.00
2022-11-13T08:34:54.829Z,43.50
2022-11-13T08:38:16.032Z,37.75
2022-11-13T08:41:37.742Z,36.25
2022-11-13T08:45:00.043Z,32.00
2022-11-13T08:48:22.597Z,38.75
2022-11-13T08:51:44.012Z,36.50
2022-11-13T08:55:05.818Z,32.50
2022-11-13T08:58:27.168Z,36.00
2022-11-13T09:01:49.261Z,40.50
2022-11-13T09:05:11.388Z,31.75
2022-11-13T09:08:33.404Z,33.50
2022-11-13T09:11:54.628Z,31.75
2022-11-13T09:15:19.113Z,30.75
2022-11-13T09:18:44.464Z,34.00
2022-11-13T09:22:09.380Z,42.25
2022-11-13T09:25:37.025Z,35.75
2022-11-13T09:28:59.094Z,32.50
2022-11-13T09:32:20.652Z,43.50
2022-11-13T09:35:43.592Z,52.75
2022-11-13T09:39:05.732Z,44.75
2022-11-13T09:42:29.327Z,48.25
2022-11-13T09:45:53.888Z,45.25
2022-11-13T09:49:18.651Z,46.75
2022-11-13T09:52:42.637Z,57.00
2022-11-13T09:56:25.194Z,50.25
2022-11-13T09:59:59.504Z,53.25
2022-11-13T10:07:51.636Z,61.50
2022-11-13T10:11:25.451Z,61.50
2022-11-13T10:14:50.563Z,62.25
2022-11-13T10:18:24.328Z,61.25
2022-11-13T10:22:07.689Z,60.50
2022-11-13T10:25:37.460Z,60.00
2022-11-13T10:29:06.512Z,59.75
2022-11-13T10:32:32.244Z,59.25
2022-11-13T10:36:08.421Z,51.00
2022-11-13T10:39:29.777Z,50.00
2022-11-13T10:42:50.964Z,58.25
2022-11-13T10:46:38.644Z,58.25
2022-11-13T10:50:23.242Z,40.00
2022-11-13T10:53:44.969Z,49.25
2022-11-13T10:57:45.834Z,41.25
2022-11-13T11:01:23.446Z,39.00
2022-11-13T11:04:44.948Z,45.50
2022-11-13T11:08:11.517Z,34.00
2022-11-13T11:11:50.964Z,40.75
2022-11-13T11:15:25.373Z,38.25
2022-11-13T11:18:57.869Z,34.00
2022-11-13T11:22:23.240Z,37.50
2022-11-13T11:26:01.550Z,37.50
2022-11-13T11:29:34.108Z,32.25
2022-11-13T11:33:10.366Z,35.00
2022-11-13T11:36:42.507Z,34.50
2022-11-13T11:40:08.310Z,26.50
2022-11-13T11:43:49.653Z,32.50
2022-11-13T11:47:15.843Z,35.00
2022-11-13T11:50:46.750Z,37.75
2022-11-13T11:54:10.528Z,37.75
2022-11-13T11:57:56.333Z,32.00
2022-11-13T12:01:29.666Z,35.25
2022-11-13T12:05:24.220Z,35.50
2022-11-13T12:09:12.145Z,33.00
2022-11-13T12:12:48.892Z,27.75
2022-11-13T12:16:25.828Z,29.00
2022-11-13T12:20:05.369Z,36.00
2022-11-13T12:23:55.060Z,29.50
2022-11-13T12:27:39.216Z,29.25
2022-11-13T12:31:39.595Z,28.00
2022-11-13T12:35:20.166Z,32.00
2022-11-13T12:38:57.391Z,32.50
2022-11-13T12:42:32.610Z,38.25
2022-11-13T12:46:03.653Z,33.50
2022-11-13T12:49:27.505Z,30.50
2022-11-13T12:53:03.287Z,24.75
2022-11-13T12:56:24.502Z,28.50
2022-11-13T12:59:56.698Z,33.75
2022-11-13T13:03:23.384Z,29.25
2022-11-13T13:06:53.654Z,32.00
2022-11-13T13:11:08.952Z,37.00
2022-11-13T13:14:35.844Z,36.75
2022-11-13T13:18:26.460Z,36.75
2022-11-13T13:21:47.770Z,27.50
2022-11-13T13:25:28.657Z,35.00
2022-11-13T13:29:00.882Z,23.75
2022-11-13T13:32:34.681Z,37.00
2022-11-13T13:36:02.250Z,33.00
2022-11-13T13:39:42.069Z,30.75
2022-11-13T13:43:40.137Z,33.25
2022-11-13T13:47:04.856Z,36.00
2022-11-13T13:50:31.640Z,32.50
2022-11-13T13:53:54.196Z,28.00
2022-11-13T13:57:16.989Z,30.00
2022-11-13T14:00:53.187Z,35.25
2022-11-13T14:04:22.275Z,32.00
2022-11-13T14:07:47.338Z,28.00
2022-11-13T14:11:30.070Z,28.00
2022-11-13T14:14:51.525Z,35.25
2022-11-13T14:18:14.966Z,30.50
2022-11-13T14:21:36.678Z,26.75
2022-11-13T14:25:00.815Z,32.75
2022-11-13T14:28:25.579Z,23.75
2022-11-13T14:31:47.107Z,27.75
2022-11-13T14:35:20.120Z,24.50
2022-11-13T14:38:47.625Z,26.00
2022-11-13T14:42:21.896Z,29.25
2022-11-13T14:45:57.518Z,23.50
2022-11-13T14:49:32.837Z,23.00
2022-11-13T14:53:02.565Z,19.50
2022-11-13T14:56:33.412Z,24.00
2022-11-13T14:59:55.145Z,23.25
2022-11-13T15:03:16.794Z,26.50
2022-11-13T15:06:40.443Z,28.25
2022-11-13T15:10:02.312Z,24.25
2022-11-13T15:13:24.090Z,32.25
2022-11-13T15:16:46.732Z,25.75
2022-11-13T15:20:15.032Z,21.75
2022-11-13T15:23:36.963Z,28.00
2022-11-13T15:26:58.443Z,24.25
2022-11-13T15:30:21.385Z,23.25
2022-11-13T15:33:43.171Z,24.50
2022-11-13T15:37:13.516Z,25.75
2022-11-13T15:40:35.247Z,19.50
2022-11-13T15:43:57.297Z,26.50
2022-11-13T15:47:32.931Z,21.00
2022-11-13T15:50:54.722Z,26.75
2022-11-13T15:54:24.150Z,22.25
2022-11-13T15:57:46.504Z,21.50
2022-11-13T16:01:12.063Z,23.75
2022-11-13T16:04:54.923Z,26.00
2022-11-13T16:08:16.762Z,27.00
2022-11-13T16:11:38.427Z,17.00
2022-11-13T16:15:00.097Z,23.75
2022-11-13T16:18:31.581Z,21.00
2022-11-13T16:21:54.415Z,20.50
2022-11-13T16:25:20.613Z,27.00
2022-11-13T16:29:07.643Z,18.00
2022-11-13T16:32:25.148Z,17.25
2022-11-13T16:35:46.808Z,22.00
2022-11-13T16:39:17.178Z,26.75
2022-11-13T16:42:38.414Z,27.25
2022-11-13T16:46:01.308Z,15.50
2022-11-13T16:49:23.169Z,18.00
2022-11-13T16:52:45.536Z,22.25
2022-11-13T16:56:13.211Z,27.25
2022-11-13T16:59:34.924Z,22.25
2022-11-13T17:02:56.641Z,26.75
2022-11-13T17:06:23.655Z,25.00
2022-11-13T17:09:46.499Z,23.50
2022-11-13T17:13:09.868Z,27.00
2022-11-13T17:16:32.417Z,22.75
2022-11-13T17:19:54.602Z,23.75
2022-11-13T17:23:16.784Z,25.00
2022-11-13T17:26:38.844Z,28.25
2022-11-13T17:30:01.501Z,29.00
2022-11-13T17:33:23.581Z,25.00
2022-11-13T17:36:45.141Z,27.25
2022-11-13T17:40:07.194Z,31.25
2022-11-13T17:43:28.956Z,34.25
2022-11-13T17:46:52.565Z,28.00
2022-11-13T17:50:15.758Z,27.75
2022-11-13T17:53:39.515Z,31.50
2022-11-13T17:57:06.004Z,37.75
2022-11-13T18:00:29.708Z,36.25
2022-11-13T18:03:57.179Z,35.00
2022-11-13T18:07:20.582Z,42.00
2022-11-13T18:10:43.577Z,42.50
2022-11-13T18:14:05.803Z,41.25
2022-11-13T18:17:27.701Z,36.00
2022-11-13T18:20:54.078Z,41.75
2022-11-13T18:24:18.867Z,49.25
2022-11-13T18:27:42.304Z,38.25
2022-11-13T18:31:13.730Z,50.25
2022-11-13T18:34:36.107Z,53.50
2022-11-13T18:37:58.375Z,46.75
2022-11-13T18:41:22.262Z,42.25
2022-11-13T18:44:44.900Z,42.00
2022-11-13T18:48:07.997Z,45.00
2022-11-13T18:51:31.131Z,49.25
2022-11-13T18:54:52.678Z,42.75
2022-11-13T18:58:14.749Z,52.75
2022-11-13T19:01:38.808Z,46.25
2022-11-13T19:05:00.473Z,50.75
2022-11-13T19:08:24.063Z,52.25
2022-11-13T19:11:46.665Z,49.25
2022-11-13T19:15:10.461Z,54.50
2022-11-13T19:18:33.674Z,56.25
2022-11-13T19:21:56.414Z,49.75
2022-11-13T19:25:18.288Z,58.50
2022-11-13T19:28:43.438Z,65.25
2022-11-13T19:32:05.552Z,53.75
2022-11-13T19:35:27.718Z,42.25
2022-11-13T19:38:49.548Z,56.50
2022-11-13T19:42:13.128Z,53.00
2022-11-13T19:45:36.360Z,61.25
2022-11-13T19:48:58.874Z,56.50
2022-11-13T19:52:21.190Z,51.50
2022-11-13T19:55:44.206Z,52.25
2022-11-13T19:59:12.346Z,57.75
2022-11-13T20:02:35.537Z,53.75
2022-11-13T20:06:01.669Z,52.25
2022-11-13T20:09:24.724Z,54.50
2022-11-13T20:12:46.969Z,57.50
2022-11-13T20:16:13.100Z,59.00
2022-11-13T20:19:35.551Z,64.50
2022-11-13T20:22:58.844Z,61.00
2022-11-13T20:26:21.441Z,61.25
2022-11-13T20:29:43.108Z,56.25
2022-11-13T20:33:05.351Z,58.50
2022-11-13T20:36:27.850Z,52.50
2022-11-13T20:39:50.136Z,50.25
2022-11-13T20:43:12.690Z,61.75
2022-11-13T20:46:35.604Z,54.50
2022-11-13T20:49:59.409Z,56.50
2022-11-13T20:53:21.716Z,54.75
2022-11-13T20:56:44.881Z,63.00
2022-11-13T21:04:41.408Z,52.50
2022-11-13T21:12:41.027Z,60.75
2022-11-13T21:16:09.162Z,62.75
2022-11-13T21:19:32.116Z,63.25
2022-11-13T21:22:54.978Z,55.00
2022-11-13T21:26:18.112Z,56.50
2022-11-13T21:29:39.389Z,55.50
2022-11-13T21:33:01.844Z,62.00
2022-11-13T21:36:26.816Z,62.50
2022-11-13T21:39:48.788Z,62.25
2022-11-13T21:43:10.361Z,65.50
2022-11-13T21:46:36.774Z,63.25
2022-11-13T21:49:57.808Z,57.50
2022-11-13T21:53:19.474Z,60.50
2022-11-13T21:56:42.229Z,56.75
2022-11-13T22:00:04.406Z,55.75
2022-11-13T22:03:26.674Z,61.25
2022-11-13T22:06:49.305Z,62.50
2022-11-13T22:10:10.614Z,56.00
2022-11-13T22:13:32.154Z,59.75
2022-11-13T22:16:53.607Z,51.00
2022-11-13T22:20:15.624Z,57.25
2022-11-13T22:23:37.205Z,49.50
2022-11-13T22:26:58.769Z,47.00
2022-11-13T22:30:20.083Z,59.50
2022-11-13T22:33:47.752Z,56.50
2022-11-13T22:37:10.364Z,59.00
2022-11-13T22:40:33.475Z,49.50
2022-11-13T22:44:01.618Z,52.75
2022-11-13T22:47:23.104Z,59.75
2022-11-13T22:50:44.462Z,54.25
2022-11-13T22:54:08.845Z,53.25
2022-11-13T22:57:31.969Z,59.75
2022-11-13T23:00:54.506Z,48.50
2022-11-13T23:04:15.729Z,51.75
2022-11-13T23:07:37.188Z,56.00
2022-11-13T23:10:59.214Z,55.75
2022-11-13T23:14:21.239Z,52.25
2022-11-13T23:17:42.600Z,54.00
2022-11-13T23:21:04.989Z,57.50
2022-11-13T23:24:29.573Z,58.50
2022-11-13T23:27:51.469Z,59.25
2022-11-13T23:31:12.985Z,44.25
2022-11-13T23:34:58.166Z,58.50
2022-11-13T23:38:16.252Z,57.75
2022-11-13T23:41:38.566Z,45.25
2022-11-13T23:44:59.987Z,56.25
2022-11-13T23:48:21.682Z,56.25
2022-11-13T23:51:42.699Z,52.50
2022-11-13T23:55:04.129Z,53.00
2022-11-13T23:58:25.448Z,58.50
